Queen Valley, Arizona
Current Conditions -  °F | °C
As of 5:47 AM on Monday 20 Oct 2014 (Local Time) from KIWA Reporting Station
Broken Clouds Broken Clouds  
Wind Chill: 59°   Ceiling: 10000
Heat Index: 59°   Visibility: 20mi
Dew Point: 52°   Wind: 5mph
Humidity: 77%   Direction: 130°SE
Pressure: 29.92"   Gusts: NA
Location:  33.2782°N, 111.363°W
Report Text: KIWA 201247Z 13004KT 20SM BKN100 15/11 A2992
Loading
Personal Weather Stations






























Interactive Weather Map
Tropical Storm Tracking
New forecast layout! Learn more

10-Day Weather Forecast

Advertisements
Track Severe Weather on mobile